createdAt,value
2023-03-29T10:14:38.441Z,102161.81
2023-03-29T10:15:42.004Z,102160.84
2023-03-29T10:16:47.885Z,102164.19
2023-03-29T10:17:58.911Z,102160.19
2023-03-29T10:19:17.786Z,102151.16
2023-03-29T10:20:22.009Z,102152.91
2023-03-29T10:21:25.642Z,102150.06
2023-03-29T10:22:34.790Z,102172.22
2023-03-29T10:23:39.480Z,102156.91
2023-03-29T10:24:50.150Z,102150.78
2023-03-29T10:25:53.293Z,102142.94
2023-03-29T10:27:01.818Z,102161.75
2023-03-29T10:28:08.968Z,102154.16
2023-03-29T10:29:14.611Z,102136.50
2023-03-29T10:30:25.418Z,102146.84
2023-03-29T10:31:33.321Z,102141.69
2023-03-29T10:32:38.017Z,102142.50
2023-03-29T10:33:41.977Z,102151.75
2023-03-29T10:34:47.213Z,102147.47
2023-03-29T10:35:51.371Z,102146.59
2023-03-29T10:36:59.932Z,102143.47
2023-03-29T10:38:08.149Z,102134.03
2023-03-29T10:39:14.834Z,102135.84
2023-03-29T10:40:22.263Z,102147.06
2023-03-29T10:41:27.335Z,102135.88
2023-03-29T10:42:29.925Z,102134.53
2023-03-29T10:43:38.716Z,102128.66
2023-03-29T10:44:42.387Z,102133.09
2023-03-29T10:45:50.075Z,102138.84
2023-03-29T10:46:53.961Z,102133.56
2023-03-29T10:47:58.295Z,102137.00
2023-03-29T10:49:06.347Z,102149.34
2023-03-29T10:50:15.494Z,102134.63
2023-03-29T10:51:20.590Z,102145.03
2023-03-29T10:52:24.236Z,102130.59
2023-03-29T10:53:28.867Z,102128.41
2023-03-29T10:54:32.805Z,102150.59
2023-03-29T10:55:42.794Z,102138.75
2023-03-29T10:56:52.488Z,102122.75
2023-03-29T10:58:07.668Z,102128.84
2023-03-29T10:59:25.642Z,102135.66
2023-03-29T11:00:36.032Z,102135.75
2023-03-29T11:01:52.615Z,102129.25
2023-03-29T11:03:23.480Z,102130.72
2023-03-29T11:04:38.842Z,102132.97
2023-03-29T11:05:49.273Z,102131.13
2023-03-29T11:07:14.499Z,102130.50
2023-03-29T11:08:32.038Z,102123.84
2023-03-29T11:09:48.868Z,102119.06
2023-03-29T11:11:02.707Z,102131.94
2023-03-29T11:12:16.070Z,102128.50
2023-03-29T11:13:27.611Z,102129.75
2023-03-29T11:14:39.010Z,102124.66
2023-03-29T11:15:59.754Z,102113.63
2023-03-29T11:17:14.486Z,102123.22
2023-03-29T11:18:42.905Z,102116.97
2023-03-29T11:20:14.522Z,102127.84
2023-03-29T11:21:28.497Z,102123.78
2023-03-29T11:22:42.665Z,102109.84
2023-03-29T11:23:55.959Z,102113.31
2023-03-29T11:25:21.820Z,102120.06
2023-03-29T11:26:29.077Z,102118.66
2023-03-29T11:27:39.075Z,102113.00
2023-03-29T11:28:49.527Z,102109.41
2023-03-29T11:30:06.729Z,102110.41
2023-03-29T11:31:20.608Z,102103.31
2023-03-29T11:32:32.465Z,102101.38
2023-03-29T11:33:49.039Z,102120.31
2023-03-29T11:35:04.594Z,102105.06
2023-03-29T11:36:13.960Z,102116.88
2023-03-29T11:37:23.030Z,102105.66
2023-03-29T11:38:33.842Z,102107.56
2023-03-29T11:39:50.287Z,102111.84
2023-03-29T11:41:02.432Z,102096.97
2023-03-29T11:42:13.688Z,102113.50
2023-03-29T11:43:21.137Z,102116.25
2023-03-29T11:44:28.510Z,102094.38
2023-03-29T11:45:35.970Z,102102.53
2023-03-29T11:46:45.626Z,102104.19
2023-03-29T11:47:50.931Z,102095.16
2023-03-29T11:49:00.920Z,102088.31
2023-03-29T11:50:11.293Z,102105.25
2023-03-29T11:51:22.722Z,102093.38
2023-03-29T11:52:31.682Z,102087.59
2023-03-29T11:53:43.547Z,102088.78
2023-03-29T11:54:53.277Z,102095.69
2023-03-29T11:55:57.244Z,102085.66
2023-03-29T11:57:04.185Z,102086.78
2023-03-29T11:58:13.010Z,102073.13
2023-03-29T11:59:22.565Z,102093.59
2023-03-29T12:00:30.673Z,102093.94
2023-03-29T12:01:40.198Z,102077.72
2023-03-29T12:02:48.290Z,102085.50
2023-03-29T12:03:57.272Z,102077.56
2023-03-29T12:05:08.232Z,102097.78
2023-03-29T12:06:19.054Z,102097.03
2023-03-29T12:07:29.502Z,102087.09
2023-03-29T12:08:35.769Z,102108.75
2023-03-29T12:09:47.035Z,102076.50
2023-03-29T12:10:57.643Z,102088.78
2023-03-29T12:12:09.830Z,102080.00
2023-03-29T12:13:20.904Z,102071.91
2023-03-29T12:14:29.659Z,102075.50
2023-03-29T12:15:37.136Z,102076.19
2023-03-29T12:16:45.117Z,102075.50
2023-03-29T12:17:53.784Z,102053.00
2023-03-29T12:19:01.732Z,102070.25
2023-03-29T12:20:12.558Z,102084.50
2023-03-29T12:21:20.282Z,102064.81
2023-03-29T12:22:23.318Z,102077.41
2023-03-29T12:23:27.569Z,102069.66
2023-03-29T12:24:33.955Z,102070.56
2023-03-29T12:25:52.287Z,102050.34
2023-03-29T12:27:20.921Z,102051.91
2023-03-29T12:28:42.666Z,102049.75
2023-03-29T12:30:01.400Z,102062.19
2023-03-29T12:31:18.863Z,102053.63
2023-03-29T12:32:35.281Z,102047.59
2023-03-29T12:34:26.283Z,102045.69
2023-03-29T12:35:39.225Z,102061.00
2023-03-29T12:37:04.861Z,102040.72
2023-03-29T12:38:17.183Z,102049.25
2023-03-29T12:39:21.781Z,102055.47
2023-03-29T12:40:28.535Z,102051.22
2023-03-29T12:41:38.622Z,102036.59
2023-03-29T12:42:46.387Z,102034.00
2023-03-29T12:43:50.856Z,102051.03
2023-03-29T12:44:59.213Z,102043.84
2023-03-29T12:46:08.949Z,102032.13
2023-03-29T12:47:21.650Z,102039.47
2023-03-29T12:48:28.007Z,102041.88
2023-03-29T12:49:35.712Z,102041.41
2023-03-29T12:50:47.430Z,102028.91
2023-03-29T12:51:51.512Z,102038.63
2023-03-29T12:52:54.269Z,102023.91
2023-03-29T12:54:07.581Z,102037.41
2023-03-29T12:55:25.363Z,102042.00
2023-03-29T12:56:40.505Z,102037.00
2023-03-29T12:57:47.681Z,102043.28
2023-03-29T12:58:56.315Z,102032.41
2023-03-29T13:00:12.971Z,102028.84
2023-03-29T13:01:29.754Z,102035.16
2023-03-29T13:02:39.598Z,102027.81
2023-03-29T13:03:48.622Z,102031.53
2023-03-29T13:04:55.542Z,102038.19
2023-03-29T13:06:05.582Z,102030.41
2023-03-29T13:07:15.689Z,102021.00
2023-03-29T13:08:23.136Z,102023.38
2023-03-29T13:09:30.171Z,102037.78
2023-03-29T13:10:41.360Z,102022.50
2023-03-29T13:11:45.212Z,102029.13
2023-03-29T13:12:51.136Z,102010.06
2023-03-29T13:13:55.002Z,102018.47
2023-03-29T13:15:00.638Z,102004.09
2023-03-29T13:16:16.706Z,102001.25
2023-03-29T13:17:26.224Z,102002.00
2023-03-29T13:18:43.718Z,102027.72
2023-03-29T13:19:52.240Z,102008.47
2023-03-29T13:21:03.799Z,102005.34
2023-03-29T13:22:23.811Z,102010.66
2023-03-29T13:23:36.531Z,101999.72
2023-03-29T13:25:04.468Z,102000.44
2023-03-29T13:26:19.864Z,101983.34
2023-03-29T13:27:37.385Z,101993.56
2023-03-29T13:28:58.296Z,101994.56
2023-03-29T13:30:27.834Z,101992.13
2023-03-29T13:31:37.728Z,101993.78
2023-03-29T13:32:49.915Z,101991.50
2023-03-29T13:34:03.967Z,101998.34
2023-03-29T13:35:18.537Z,101989.03
2023-03-29T13:36:36.687Z,101991.69
2023-03-29T13:37:49.032Z,102005.06
2023-03-29T13:38:56.133Z,101978.28
2023-03-29T13:40:00.416Z,102003.63
2023-03-29T13:41:05.982Z,101989.63
2023-03-29T13:42:19.634Z,101995.69
2023-03-29T13:43:31.071Z,101994.72
2023-03-29T13:44:44.560Z,101994.13
2023-03-29T13:46:05.195Z,101987.28
2023-03-29T13:47:28.940Z,101988.28
2023-03-29T13:48:49.420Z,102000.34
2023-03-29T13:49:58.465Z,101993.03
2023-03-29T13:51:08.297Z,102005.13
2023-03-29T13:52:17.893Z,102014.19
2023-03-29T13:53:30.446Z,101996.34
2023-03-29T13:54:39.620Z,102005.22
2023-03-29T13:55:48.799Z,101998.22
2023-03-29T13:57:01.610Z,101999.59
2023-03-29T13:58:11.806Z,102009.56
2023-03-29T13:59:19.734Z,101997.00
2023-03-29T14:00:27.278Z,101989.97
2023-03-29T14:01:37.859Z,101991.16
2023-03-29T14:02:47.417Z,101993.59
2023-03-29T14:03:53.782Z,101983.38
2023-03-29T14:04:59.963Z,101980.94
2023-03-29T14:06:04.910Z,101980.56
2023-03-29T14:07:10.837Z,101979.00
2023-03-29T14:08:21.501Z,101976.59
2023-03-29T14:09:31.855Z,101962.34
2023-03-29T14:10:39.702Z,101984.34
2023-03-29T14:11:45.956Z,101969.41
2023-03-29T14:12:50.051Z,101970.75
2023-03-29T14:13:54.104Z,101977.00
2023-03-29T14:15:03.724Z,101977.41
2023-03-29T14:16:10.500Z,101979.13
2023-03-29T14:17:21.324Z,101986.13
2023-03-29T14:18:27.125Z,101973.00
2023-03-29T14:19:32.778Z,101971.16
2023-03-29T14:20:36.269Z,101976.56
2023-03-29T14:21:38.776Z,101970.91
2023-03-29T14:22:44.549Z,101971.38
2023-03-29T14:23:55.102Z,101965.44
2023-03-29T14:25:02.840Z,101981.50
2023-03-29T14:26:10.714Z,101970.09
2023-03-29T14:27:14.548Z,101970.66
2023-03-29T14:28:22.847Z,101968.19
2023-03-29T14:29:32.687Z,101958.78
2023-03-29T14:30:36.280Z,101959.66
2023-03-29T14:31:42.101Z,101972.34
2023-03-29T14:32:44.785Z,101980.94
2023-03-29T14:33:53.792Z,101972.22
2023-03-29T14:34:58.188Z,101962.59
2023-03-29T14:36:05.296Z,101959.03
2023-03-29T14:37:11.619Z,101966.47
2023-03-29T14:38:16.767Z,101949.94
2023-03-29T14:39:21.392Z,101955.47
2023-03-29T14:40:28.480Z,101961.56
2023-03-29T14:41:33.682Z,101964.63
2023-03-29T14:42:38.933Z,101981.66
2023-03-29T14:43:42.763Z,101968.78
2023-03-29T14:44:45.269Z,101948.66
2023-03-29T14:45:49.426Z,101960.63
2023-03-29T14:46:53.591Z,101957.03
2023-03-29T14:47:58.162Z,101954.63
2023-03-29T14:49:02.393Z,101963.78
2023-03-29T14:50:07.339Z,101960.91
2023-03-29T14:51:11.683Z,101946.31
2023-03-29T14:52:14.907Z,101950.63
2023-03-29T14:53:21.367Z,101948.66
2023-03-29T14:54:28.748Z,101946.97
2023-03-29T14:55:34.472Z,101945.59
2023-03-29T14:56:38.616Z,101941.16
2023-03-29T14:57:43.101Z,101945.41
2023-03-29T14:58:48.307Z,101952.47
2023-03-29T14:59:58.346Z,101955.34
2023-03-29T15:01:06.474Z,101948.78
2023-03-29T15:02:23.822Z,101940.47
2023-03-29T15:03:27.783Z,101956.66
2023-03-29T15:04:34.968Z,101952.72
2023-03-29T15:05:41.298Z,101935.75
2023-03-29T15:06:47.244Z,101944.50
2023-03-29T15:07:51.040Z,101942.19
2023-03-29T15:09:05.500Z,101942.78
2023-03-29T15:10:18.740Z,101940.59
2023-03-29T15:11:24.858Z,101930.84
2023-03-29T15:12:30.855Z,101941.66
2023-03-29T15:13:34.447Z,101922.50
2023-03-29T15:14:38.315Z,101936.03
2023-03-29T15:15:42.011Z,101932.22
2023-03-29T15:16:47.522Z,101926.50
2023-03-29T15:17:52.760Z,101919.25
2023-03-29T15:18:56.741Z,101921.47
2023-03-29T15:20:01.679Z,101917.84
2023-03-29T15:21:06.732Z,101925.31
2023-03-29T15:22:11.954Z,101915.13
2023-03-29T15:23:25.490Z,101911.94
2023-03-29T15:24:32.164Z,101913.56
2023-03-29T15:25:36.788Z,101913.97
2023-03-29T15:26:43.198Z,101918.31
2023-03-29T15:27:49.200Z,101911.69
2023-03-29T15:28:56.068Z,101915.47
2023-03-29T15:30:04.171Z,101939.56
2023-03-29T15:31:12.409Z,101915.22
2023-03-29T15:32:22.986Z,101920.22
2023-03-29T15:33:33.014Z,101918.16
2023-03-29T15:34:38.483Z,101914.22
2023-03-29T15:35:41.265Z,101911.38
2023-03-29T15:36:46.602Z,101920.97
2023-03-29T15:37:49.495Z,101921.38
2023-03-29T15:38:53.389Z,101931.50
2023-03-29T15:39:56.900Z,101911.91
2023-03-29T15:41:01.891Z,101909.38
2023-03-29T15:42:07.978Z,101918.38
2023-03-29T15:43:12.463Z,101906.34
2023-03-29T15:44:18.800Z,101907.53
2023-03-29T15:45:22.550Z,101904.00
2023-03-29T15:46:26.455Z,101891.00
2023-03-29T15:47:30.283Z,101896.47
2023-03-29T15:48:34.670Z,101896.69
2023-03-29T15:49:37.498Z,101881.75
2023-03-29T15:50:41.026Z,101879.69
2023-03-29T15:51:44.681Z,101899.31
2023-03-29T15:52:47.241Z,101899.00
2023-03-29T15:53:50.992Z,101887.66
2023-03-29T15:54:53.341Z,101897.72
2023-03-29T15:56:01.673Z,101902.28
2023-03-29T15:57:08.055Z,101897.41
2023-03-29T15:58:15.741Z,101900.44
2023-03-29T15:59:19.618Z,101891.63
2023-03-29T16:00:22.642Z,101901.53
2023-03-29T16:01:35.795Z,101902.56
2023-03-29T16:02:38.872Z,101881.59
2023-03-29T16:03:47.618Z,101909.34
2023-03-29T16:04:52.557Z,101889.97
2023-03-29T16:05:57.089Z,101877.75
2023-03-29T16:07:01.500Z,101896.28
2023-03-29T16:08:05.213Z,101884.63
2023-03-29T16:09:09.004Z,101886.03
2023-03-29T16:10:12.637Z,101894.03
2023-03-29T16:11:15.468Z,101882.69
2023-03-29T16:12:20.707Z,101891.81
2023-03-29T16:13:23.065Z,101886.94
2023-03-29T16:14:31.349Z,101887.09
2023-03-29T16:15:37.674Z,101881.59
2023-03-29T16:16:40.300Z,101897.97
2023-03-29T16:17:43.918Z,101888.38
2023-03-29T16:18:46.449Z,101886.31
2023-03-29T16:19:50.155Z,101888.94
2023-03-29T16:20:53.762Z,101874.00
2023-03-29T16:21:57.297Z,101873.78
2023-03-29T16:22:59.723Z,101874.25
2023-03-29T16:24:03.950Z,101883.28
2023-03-29T16:25:13.988Z,101896.78
2023-03-29T16:26:18.492Z,101886.19
2023-03-29T16:27:22.590Z,101886.84
2023-03-29T16:28:26.450Z,101885.81
2023-03-29T16:29:30.404Z,101883.19
2023-03-29T16:30:34.403Z,101876.25
2023-03-29T16:31:36.979Z,101880.47
2023-03-29T16:32:40.832Z,101866.34
2023-03-29T16:33:44.581Z,101871.63
2023-03-29T16:34:47.376Z,101866.59
2023-03-29T16:35:51.020Z,101863.06
2023-03-29T16:36:53.880Z,101866.19
2023-03-29T16:37:57.905Z,101864.84
2023-03-29T16:39:00.672Z,101865.88
2023-03-29T16:40:07.815Z,101858.09
2023-03-29T16:41:15.637Z,101859.56
2023-03-29T16:42:19.127Z,101861.31
2023-03-29T16:43:22.881Z,101853.50
2023-03-29T16:44:28.064Z,101860.19
2023-03-29T16:45:30.349Z,101862.09
2023-03-29T16:46:34.272Z,101859.00
2023-03-29T16:47:37.870Z,101858.50
2023-03-29T16:48:40.367Z,101852.13
2023-03-29T16:49:45.847Z,101861.22
2023-03-29T16:50:49.502Z,101864.94
2023-03-29T16:51:53.258Z,101856.25
2023-03-29T16:52:56.858Z,101864.25
2023-03-29T16:54:00.766Z,101866.31
2023-03-29T16:55:04.197Z,101863.75
2023-03-29T16:56:09.080Z,101859.22
2023-03-29T16:57:11.480Z,101859.34
2023-03-29T16:58:15.593Z,101865.09
2023-03-29T16:59:19.753Z,101873.38
2023-03-29T17:00:23.768Z,101864.16
2023-03-29T17:01:27.956Z,101860.97
2023-03-29T17:02:31.397Z,101859.00
2023-03-29T17:03:35.155Z,101847.28
2023-03-29T17:04:38.775Z,101848.78
2023-03-29T17:05:48.472Z,101862.97
2023-03-29T17:06:52.272Z,101844.56
2023-03-29T17:07:56.982Z,101852.28
2023-03-29T17:09:00.991Z,101841.66
2023-03-29T17:10:04.902Z,101849.97
2023-03-29T17:11:08.604Z,101848.31
2023-03-29T17:12:12.440Z,101854.75
2023-03-29T17:13:14.981Z,101861.41
2023-03-29T17:14:18.894Z,101832.78
2023-03-29T17:15:24.368Z,101840.78
2023-03-29T17:16:29.360Z,101850.44
2023-03-29T17:17:33.122Z,101847.56
2023-03-29T17:18:36.856Z,101855.34
2023-03-29T17:19:40.262Z,101858.94
2023-03-29T17:20:43.724Z,101852.38
2023-03-29T17:21:47.235Z,101868.31
2023-03-29T17:22:52.361Z,101856.28
2023-03-29T17:23:55.816Z,101850.88
2023-03-29T17:24:59.127Z,101854.47
2023-03-29T17:26:02.340Z,101857.00
2023-03-29T17:27:06.404Z,101844.53
2023-03-29T17:28:08.927Z,101850.03
2023-03-29T17:29:12.268Z,101847.41
2023-03-29T17:30:16.770Z,101853.69
2023-03-29T17:31:21.708Z,101851.84
2023-03-29T17:32:24.158Z,101853.72
2023-03-29T17:33:27.771Z,101853.59
2023-03-29T17:34:31.038Z,101856.38
2023-03-29T17:35:34.453Z,101850.78
2023-03-29T17:36:37.855Z,101846.06
2023-03-29T17:37:40.409Z,101836.69
2023-03-29T17:38:43.828Z,101845.84
2023-03-29T17:39:46.266Z,101841.06
2023-03-29T17:40:54.298Z,101835.56
2023-03-29T17:41:57.130Z,101833.16
2023-03-29T17:43:00.722Z,101838.22
2023-03-29T17:44:04.326Z,101828.59
2023-03-29T17:45:09.034Z,101857.28
2023-03-29T17:46:11.900Z,101838.53
2023-03-29T17:47:17.078Z,101841.63
2023-03-29T17:48:19.801Z,101839.91
2023-03-29T17:49:23.420Z,101838.00
2023-03-29T17:50:26.396Z,101844.47
2023-03-29T17:51:29.885Z,101842.88
2023-03-29T17:52:33.454Z,101840.84
2023-03-29T17:53:36.306Z,101843.91
2023-03-29T17:54:39.639Z,101856.03
2023-03-29T17:55:43.248Z,101856.69
2023-03-29T17:56:47.608Z,101868.22
2023-03-29T17:57:50.243Z,101849.28
2023-03-29T17:58:53.806Z,101855.88
2023-03-29T17:59:57.538Z,101848.25
2023-03-29T18:01:01.052Z,101843.44
2023-03-29T18:02:05.617Z,101844.22
2023-03-29T18:03:10.730Z,101843.00
2023-03-29T18:04:14.179Z,101839.09
2023-03-29T18:05:16.807Z,101831.69
2023-03-29T18:06:21.087Z,101846.06
2023-03-29T18:07:23.541Z,101846.06
2023-03-29T18:08:27.335Z,101837.16
2023-03-29T18:09:31.108Z,101839.78
2023-03-29T18:10:35.230Z,101837.75
2023-03-29T18:11:38.676Z,101852.72
2023-03-29T18:12:42.265Z,101843.09
2023-03-29T18:13:44.979Z,101846.88
2023-03-29T18:14:48.800Z,101839.56
2023-03-29T18:15:56.771Z,101852.34
2023-03-29T18:17:00.353Z,101843.91
2023-03-29T18:18:04.015Z,101841.59
2023-03-29T18:19:10.860Z,101847.88
2023-03-29T18:20:13.760Z,101851.19
2023-03-29T18:21:18.506Z,101857.59
2023-03-29T18:22:21.203Z,101848.56
2023-03-29T18:23:24.602Z,101849.38
2023-03-29T18:24:27.606Z,101845.94
2023-03-29T18:25:31.360Z,101844.78
2023-03-29T18:26:33.927Z,101840.94
2023-03-29T18:27:37.534Z,101849.03
2023-03-29T18:28:41.035Z,101849.25
2023-03-29T18:29:45.035Z,101845.72
2023-03-29T18:30:50.983Z,101853.38
2023-03-29T18:31:54.546Z,101848.56
2023-03-29T18:32:58.544Z,101845.13
2023-03-29T18:34:02.824Z,101847.78
2023-03-29T18:35:08.836Z,101855.66
2023-03-29T18:36:13.324Z,101858.75
2023-03-29T18:37:17.691Z,101855.09
2023-03-29T18:38:22.628Z,101854.03
2023-03-29T18:39:27.456Z,101863.53
2023-03-29T18:40:29.873Z,101861.69
2023-03-29T18:41:33.563Z,101858.88
2023-03-29T18:42:37.609Z,101863.53
2023-03-29T18:43:41.562Z,101860.91
2023-03-29T18:44:45.085Z,101864.66
2023-03-29T18:45:47.769Z,101863.66
2023-03-29T18:46:51.656Z,101847.88
2023-03-29T18:47:55.034Z,101867.53
2023-03-29T18:48:57.740Z,101864.13
2023-03-29T18:50:02.613Z,101861.91
2023-03-29T18:51:07.733Z,101860.34
2023-03-29T18:52:11.681Z,101862.84
2023-03-29T18:53:14.973Z,101865.13
2023-03-29T18:54:18.534Z,101855.66
2023-03-29T18:55:21.020Z,101866.75
2023-03-29T18:56:24.738Z,101867.88
2023-03-29T18:57:28.147Z,101878.50
2023-03-29T18:58:30.838Z,101880.44
2023-03-29T18:59:37.198Z,101883.31
2023-03-29T19:00:40.744Z,101889.34
2023-03-29T19:01:45.093Z,101887.75
2023-03-29T19:02:48.766Z,101882.03
2023-03-29T19:03:51.251Z,101878.97
2023-03-29T19:04:54.815Z,101877.59
2023-03-29T19:05:58.824Z,101874.16
2023-03-29T19:07:03.750Z,101881.03
2023-03-29T19:08:09.190Z,101887.09
2023-03-29T19:09:12.913Z,101881.56
2023-03-29T19:10:15.705Z,101884.00
2023-03-29T19:11:19.249Z,101887.31
2023-03-29T19:12:22.595Z,101893.34
2023-03-29T19:13:25.162Z,101893.00
2023-03-29T19:14:29.523Z,101888.56
2023-03-29T19:15:34.084Z,101888.91
2023-03-29T19:16:37.612Z,101885.13
2023-03-29T19:17:41.380Z,101887.41
2023-03-29T19:18:43.854Z,101897.47
2023-03-29T19:19:47.285Z,101890.81
2023-03-29T19:20:51.068Z,101890.81
2023-03-29T19:21:55.846Z,101893.91
2023-03-29T19:23:02.025Z,101892.88
2023-03-29T19:24:05.771Z,101893.44
2023-03-29T19:25:10.325Z,101892.88
2023-03-29T19:26:13.561Z,101894.13
2023-03-29T19:27:17.068Z,101884.41
2023-03-29T19:28:19.395Z,101889.00
2023-03-29T19:29:23.093Z,101897.34
2023-03-29T19:30:26.040Z,101899.16
2023-03-29T19:31:30.312Z,101909.66
2023-03-29T19:32:33.810Z,101902.81
2023-03-29T19:33:37.397Z,101895.16
2023-03-29T19:34:41.017Z,101901.22
2023-03-29T19:35:45.730Z,101896.75
2023-03-29T19:36:49.488Z,101894.94
2023-03-29T19:37:51.978Z,101908.06
2023-03-29T19:38:56.804Z,101893.34
2023-03-29T19:40:00.303Z,101906.91
2023-03-29T19:41:03.887Z,101893.56
2023-03-29T19:42:07.505Z,101904.06
2023-03-29T19:43:16.445Z,101909.78
2023-03-29T19:44:22.332Z,101901.44
2023-03-29T19:45:24.837Z,101906.25
2023-03-29T19:46:29.195Z,101905.00
2023-03-29T19:47:31.810Z,101902.59
2023-03-29T19:48:35.482Z,101915.13
2023-03-29T19:49:38.652Z,101920.63
2023-03-29T19:50:43.073Z,101920.03
2023-03-29T19:51:48.467Z,101918.56
2023-03-29T19:52:51.367Z,101920.38
2023-03-29T19:53:57.029Z,101921.19
2023-03-29T19:54:59.418Z,101922.25
2023-03-29T19:56:04.412Z,101925.09
2023-03-29T19:57:09.340Z,101926.56
2023-03-29T19:58:13.242Z,101922.53
2023-03-29T19:59:17.910Z,101931.22
2023-03-29T20:00:24.606Z,101917.88
2023-03-29T20:01:27.414Z,101924.50
2023-03-29T20:02:31.462Z,101923.13
2023-03-29T20:03:34.552Z,101922.13
2023-03-29T20:04:38.772Z,101928.94
2023-03-29T20:05:41.174Z,101920.38
2023-03-29T20:06:44.744Z,101929.06
2023-03-29T20:07:47.254Z,101928.94
2023-03-29T20:08:50.785Z,101931.81
2023-03-29T20:09:55.976Z,101931.16
2023-03-29T20:10:59.924Z,101934.91
2023-03-29T20:12:02.509Z,101932.16
2023-03-29T20:13:06.774Z,101926.31
2023-03-29T20:14:09.471Z,101923.13
2023-03-29T20:15:13.305Z,101925.88
2023-03-29T20:16:17.111Z,101926.03
2023-03-29T20:17:21.242Z,101930.00
2023-03-29T20:18:24.706Z,101922.94
2023-03-29T20:19:30.287Z,101923.50
2023-03-29T20:20:35.780Z,101932.56
2023-03-29T20:21:39.075Z,101925.09
2023-03-29T20:22:45.421Z,101922.94
2023-03-29T20:23:49.085Z,101919.97
2023-03-29T20:24:51.333Z,101918.94
2023-03-29T20:25:57.233Z,101915.31
2023-03-29T20:26:59.624Z,101914.25
2023-03-29T20:28:03.152Z,101914.72
2023-03-29T20:29:06.477Z,101915.19
2023-03-29T20:30:12.127Z,101921.09
2023-03-29T20:31:14.594Z,101914.38
2023-03-29T20:32:18.309Z,101921.78
2023-03-29T20:33:22.857Z,101914.56
2023-03-29T20:34:26.496Z,101911.34
2023-03-29T20:35:29.208Z,101917.66
2023-03-29T20:36:32.794Z,101914.00
2023-03-29T20:37:35.619Z,101911.16
2023-03-29T20:38:39.387Z,101910.94
2023-03-29T20:39:43.515Z,101915.38
2023-03-29T20:40:47.663Z,101909.53
2023-03-29T20:41:55.756Z,101915.38
2023-03-29T20:42:59.417Z,101912.41
2023-03-29T20:44:03.248Z,101915.72
2023-03-29T20:45:09.129Z,101915.13
2023-03-29T20:46:14.831Z,101913.88
2023-03-29T20:47:19.439Z,101914.78
2023-03-29T20:48:23.573Z,101920.03
2023-03-29T20:49:27.381Z,101911.81
2023-03-29T20:50:30.093Z,101912.03
2023-03-29T20:51:34.336Z,101907.25
2023-03-29T20:52:37.637Z,101910.06
2023-03-29T20:53:42.943Z,101908.25
2023-03-29T20:54:46.803Z,101903.47
2023-03-29T20:55:49.228Z,101908.72
2023-03-29T20:56:56.076Z,101909.38
2023-03-29T20:57:58.780Z,101907.66
2023-03-29T20:59:04.182Z,101911.06
2023-03-29T21:00:12.629Z,101909.25
2023-03-29T21:01:16.316Z,101908.03
2023-03-29T21:02:22.085Z,101912.91
2023-03-29T21:03:25.853Z,101911.41
2023-03-29T21:04:29.946Z,101918.59
2023-03-29T21:05:33.751Z,101916.31
2023-03-29T21:06:39.711Z,101911.06
2023-03-29T21:07:44.949Z,101915.09
2023-03-29T21:08:49.025Z,101920.88
2023-03-29T21:09:52.753Z,101913.47
2023-03-29T21:10:56.396Z,101916.09
2023-03-29T21:12:01.654Z,101912.31
2023-03-29T21:13:06.179Z,101912.06
2023-03-29T21:14:09.547Z,101913.78
2023-03-29T21:15:14.716Z,101910.09
2023-03-29T21:16:17.154Z,101907.63
2023-03-29T21:17:20.713Z,101901.13
2023-03-29T21:18:23.713Z,101906.81
2023-03-29T21:19:27.464Z,101902.00
2023-03-29T21:20:32.461Z,101899.38
2023-03-29T21:21:36.156Z,101893.69
2023-03-29T21:22:42.904Z,101889.25
2023-03-29T21:23:45.563Z,101893.94
2023-03-29T21:24:49.081Z,101900.50
2023-03-29T21:25:51.616Z,101899.91
2023-03-29T21:26:55.059Z,101902.91
2023-03-29T21:27:59.019Z,101905.63
2023-03-29T21:29:02.976Z,101900.81
2023-03-29T21:30:08.685Z,101896.00
2023-03-29T21:31:12.092Z,101903.44
2023-03-29T21:32:14.588Z,101908.03
2023-03-29T21:33:18.243Z,101905.97
2023-03-29T21:34:22.362Z,101903.34
2023-03-29T21:35:25.083Z,101902.09
2023-03-29T21:36:29.003Z,101900.88
2023-03-29T21:37:31.428Z,101900.66
2023-03-29T21:38:34.870Z,101896.41
2023-03-29T21:39:37.337Z,101903.84
2023-03-29T21:40:41.197Z,101906.31
2023-03-29T21:41:43.681Z,101908.38
2023-03-29T21:42:47.297Z,101903.13
2023-03-29T21:43:51.617Z,101907.34
2023-03-29T21:44:54.959Z,101905.66
2023-03-29T21:45:57.975Z,101906.66
2023-03-29T21:47:01.595Z,101908.94
2023-03-29T21:48:04.342Z,101908.81
2023-03-29T21:49:08.296Z,101912.03
2023-03-29T21:50:11.803Z,101905.16
2023-03-29T21:51:15.641Z,101905.91
2023-03-29T21:52:17.843Z,101910.88
2023-03-29T21:53:21.652Z,101907.66
2023-03-29T21:54:25.232Z,101906.44
2023-03-29T21:55:27.998Z,101906.44
2023-03-29T21:56:31.594Z,101897.53
2023-03-29T21:57:35.193Z,101901.88
2023-03-29T21:58:38.780Z,101894.47
2023-03-29T21:59:42.591Z,101899.47
2023-03-29T22:00:47.104Z,101896.72
2023-03-29T22:01:49.946Z,101894.22
2023-03-29T22:02:53.684Z,101887.59
2023-03-29T22:03:56.961Z,101880.75
2023-03-29T22:05:00.525Z,101881.19
2023-03-29T22:06:05.710Z,101887.47
2023-03-29T22:07:10.842Z,101885.84
2023-03-29T22:08:13.322Z,101882.22
2023-03-29T22:09:16.850Z,101888.84
2023-03-29T22:10:23.076Z,101887.47
2023-03-29T22:11:28.750Z,101887.69
2023-03-29T22:12:32.501Z,101892.28
2023-03-29T22:13:36.441Z,101887.81
2023-03-29T22:14:39.516Z,101883.38
2023-03-29T22:15:45.278Z,101888.41
2023-03-29T22:16:47.965Z,101884.63
2023-03-29T22:17:53.489Z,101889.88
2023-03-29T22:18:55.968Z,101877.56
2023-03-29T22:19:59.621Z,101875.81
2023-03-29T22:21:02.480Z,101879.84
2023-03-29T22:22:07.371Z,101882.44
2023-03-29T22:23:09.876Z,101890.31
2023-03-29T22:24:13.581Z,101888.72
2023-03-29T22:25:16.526Z,101888.94
2023-03-29T22:26:22.391Z,101887.56
2023-03-29T22:27:24.883Z,101889.94
2023-03-29T22:28:28.226Z,101888.56
2023-03-29T22:29:30.783Z,101879.09
2023-03-29T22:30:34.042Z,101883.53
2023-03-29T22:31:39.628Z,101875.00
2023-03-29T22:32:44.077Z,101869.41
2023-03-29T22:33:47.342Z,101870.78
2023-03-29T22:34:51.152Z,101879.34
2023-03-29T22:35:53.506Z,101885.50
2023-03-29T22:36:57.032Z,101887.41
2023-03-29T22:37:59.450Z,101891.41
2023-03-29T22:39:03.039Z,101891.19
2023-03-29T22:40:09.321Z,101886.41
2023-03-29T22:41:13.601Z,101893.22
2023-03-29T22:42:16.309Z,101883.78
2023-03-29T22:43:21.687Z,101885.81
2023-03-29T22:44:25.794Z,101883.84
2023-03-29T22:45:29.464Z,101886.03
2023-03-29T22:46:34.307Z,101895.84
2023-03-29T22:47:40.910Z,101896.91
2023-03-29T22:48:44.717Z,101894.28
2023-03-29T22:49:50.295Z,101898.13
2023-03-29T22:50:52.752Z,101884.19